sensor_id;sensor_type;location;lat;lon;timestamp;temperature;humidity
49379;DHT22;35254;47.990;-1.608;2023-03-14T00:00:47;19.20;59.40
49379;DHT22;35254;47.990;-1.608;2023-03-14T00:03:12;19.20;59.40
49379;DHT22;35254;47.990;-1.608;2023-03-14T00:05:38;19.20;59.40
49379;DHT22;35254;47.990;-1.608;2023-03-14T00:08:04;19.20;59.20
49379;DHT22;35254;47.990;-1.608;2023-03-14T00:10:29;19.20;59.40
49379;DHT22;35254;47.990;-1.608;2023-03-14T00:12:55;19.20;59.20
49379;DHT22;35254;47.990;-1.608;2023-03-14T00:15:21;19.20;59.30
49379;DHT22;35254;47.990;-1.608;2023-03-14T00:17:46;19.20;59.10
49379;DHT22;35254;47.990;-1.608;2023-03-14T00:20:12;19.20;59.40
49379;DHT22;35254;47.990;-1.608;2023-03-14T00:22:38;19.20;59.30
49379;DHT22;35254;47.990;-1.608;2023-03-14T00:25:06;19.20;59.30
49379;DHT22;35254;47.990;-1.608;2023-03-14T00:27:32;19.20;59.60
49379;DHT22;35254;47.990;-1.608;2023-03-14T00:29:58;19.20;59.40
49379;DHT22;35254;47.990;-1.608;2023-03-14T00:32:24;19.20;59.40
49379;DHT22;35254;47.990;-1.608;2023-03-14T00:34:49;19.20;59.60
49379;DHT22;35254;47.990;-1.608;2023-03-14T00:37:15;19.20;59.60
49379;DHT22;35254;47.990;-1.608;2023-03-14T00:39:41;19.20;59.70
49379;DHT22;35254;47.990;-1.608;2023-03-14T00:42:07;19.20;59.70
49379;DHT22;35254;47.990;-1.608;2023-03-14T00:44:32;19.20;59.70
49379;DHT22;35254;47.990;-1.608;2023-03-14T00:46:58;19.20;59.80
49379;DHT22;35254;47.990;-1.608;2023-03-14T00:49:24;19.20;60.00
49379;DHT22;35254;47.990;-1.608;2023-03-14T00:51:50;19.20;60.00
49379;DHT22;35254;47.990;-1.608;2023-03-14T00:54:17;19.20;59.90
49379;DHT22;35254;47.990;-1.608;2023-03-14T00:56:42;19.20;59.70
49379;DHT22;35254;47.990;-1.608;2023-03-14T00:59:08;19.20;59.90
49379;DHT22;35254;47.990;-1.608;2023-03-14T01:01:34;19.20;59.80
49379;DHT22;35254;47.990;-1.608;2023-03-14T01:04:00;19.20;59.60
49379;DHT22;35254;47.990;-1.608;2023-03-14T01:06:27;19.20;59.80
49379;DHT22;35254;47.990;-1.608;2023-03-14T01:08:54;19.20;59.80
49379;DHT22;35254;47.990;-1.608;2023-03-14T01:11:28;19.20;59.60
49379;DHT22;35254;47.990;-1.608;2023-03-14T01:13:55;19.20;59.60
49379;DHT22;35254;47.990;-1.608;2023-03-14T01:16:22;19.20;59.60
49379;DHT22;35254;47.990;-1.608;2023-03-14T01:18:48;19.20;59.50
49379;DHT22;35254;47.990;-1.608;2023-03-14T01:21:26;19.20;59.60
49379;DHT22;35254;47.990;-1.608;2023-03-14T01:23:54;19.20;59.80
49379;DHT22;35254;47.990;-1.608;2023-03-14T01:26:22;19.20;59.80
49379;DHT22;35254;47.990;-1.608;2023-03-14T01:28:50;19.20;59.60
49379;DHT22;35254;47.990;-1.608;2023-03-14T01:31:16;19.20;59.50
49379;DHT22;35254;47.990;-1.608;2023-03-14T01:33:42;19.20;59.50
49379;DHT22;35254;47.990;-1.608;2023-03-14T01:36:08;19.20;59.50
49379;DHT22;35254;47.990;-1.608;2023-03-14T01:38:36;19.20;59.50
49379;DHT22;35254;47.990;-1.608;2023-03-14T01:41:02;19.20;59.60
49379;DHT22;35254;47.990;-1.608;2023-03-14T01:43:29;19.20;59.60
49379;DHT22;35254;47.990;-1.608;2023-03-14T01:48:36;19.20;59.40
49379;DHT22;35254;47.990;-1.608;2023-03-14T01:51:05;19.20;59.40
49379;DHT22;35254;47.990;-1.608;2023-03-14T01:53:31;19.20;59.20
49379;DHT22;35254;47.990;-1.608;2023-03-14T01:55:57;19.20;59.60
49379;DHT22;35254;47.990;-1.608;2023-03-14T01:58:25;19.10;59.20
49379;DHT22;35254;47.990;-1.608;2023-03-14T02:00:53;19.10;59.10
49379;DHT22;35254;47.990;-1.608;2023-03-14T02:03:21;19.10;59.10
49379;DHT22;35254;47.990;-1.608;2023-03-14T02:05:48;19.10;59.10
49379;DHT22;35254;47.990;-1.608;2023-03-14T02:08:17;19.10;59.10
49379;DHT22;35254;47.990;-1.608;2023-03-14T02:10:45;19.10;58.90
49379;DHT22;35254;47.990;-1.608;2023-03-14T02:13:11;19.10;59.10
49379;DHT22;35254;47.990;-1.608;2023-03-14T02:15:38;19.10;59.30
49379;DHT22;35254;47.990;-1.608;2023-03-14T02:18:04;19.10;59.20
49379;DHT22;35254;47.990;-1.608;2023-03-14T02:21:00;19.10;59.10
49379;DHT22;35254;47.990;-1.608;2023-03-14T02:26:34;19.10;58.90
49379;DHT22;35254;47.990;-1.608;2023-03-14T02:29:02;19.10;59.00
49379;DHT22;35254;47.990;-1.608;2023-03-14T02:31:27;19.10;59.00
49379;DHT22;35254;47.990;-1.608;2023-03-14T02:33:54;19.00;58.90
49379;DHT22;35254;47.990;-1.608;2023-03-14T02:36:20;19.00;58.90
49379;DHT22;35254;47.990;-1.608;2023-03-14T02:39:01;19.00;58.80
49379;DHT22;35254;47.990;-1.608;2023-03-14T02:41:29;19.00;58.90
49379;DHT22;35254;47.990;-1.608;2023-03-14T02:43:55;19.00;58.80
49379;DHT22;35254;47.990;-1.608;2023-03-14T02:46:21;19.00;58.80
49379;DHT22;35254;47.990;-1.608;2023-03-14T02:48:57;19.00;58.90
49379;DHT22;35254;47.990;-1.608;2023-03-14T02:51:25;19.00;58.80
49379;DHT22;35254;47.990;-1.608;2023-03-14T02:53:52;19.00;58.80
49379;DHT22;35254;47.990;-1.608;2023-03-14T02:56:17;19.00;58.90
49379;DHT22;35254;47.990;-1.608;2023-03-14T02:58:43;18.90;58.60
49379;DHT22;35254;47.990;-1.608;2023-03-14T03:01:08;18.90;58.70
49379;DHT22;35254;47.990;-1.608;2023-03-14T03:03:34;18.90;58.70
49379;DHT22;35254;47.990;-1.608;2023-03-14T03:06:00;18.90;58.60
49379;DHT22;35254;47.990;-1.608;2023-03-14T03:08:26;18.90;58.50
49379;DHT22;35254;47.990;-1.608;2023-03-14T03:10:53;18.90;58.60
49379;DHT22;35254;47.990;-1.608;2023-03-14T03:13:19;18.90;58.60
49379;DHT22;35254;47.990;-1.608;2023-03-14T03:15:45;18.90;58.50
49379;DHT22;35254;47.990;-1.608;2023-03-14T03:18:11;18.90;58.30
49379;DHT22;35254;47.990;-1.608;2023-03-14T03:20:37;18.90;58.40
49379;DHT22;35254;47.990;-1.608;2023-03-14T03:23:02;18.90;58.30
49379;DHT22;35254;47.990;-1.608;2023-03-14T03:25:28;18.90;58.30
49379;DHT22;35254;47.990;-1.608;2023-03-14T03:27:54;18.90;58.40
49379;DHT22;35254;47.990;-1.608;2023-03-14T03:30:20;18.90;58.20
49379;DHT22;35254;47.990;-1.608;2023-03-14T03:32:45;18.90;58.20
49379;DHT22;35254;47.990;-1.608;2023-03-14T03:35:11;18.80;58.20
49379;DHT22;35254;47.990;-1.608;2023-03-14T03:37:37;18.80;58.20
49379;DHT22;35254;47.990;-1.608;2023-03-14T03:40:03;18.80;58.10
49379;DHT22;35254;47.990;-1.608;2023-03-14T03:42:32;18.80;58.10
49379;DHT22;35254;47.990;-1.608;2023-03-14T03:44:59;18.80;58.30
49379;DHT22;35254;47.990;-1.608;2023-03-14T03:47:25;18.80;58.30
49379;DHT22;35254;47.990;-1.608;2023-03-14T03:49:51;18.80;58.20
49379;DHT22;35254;47.990;-1.608;2023-03-14T03:52:17;18.80;58.20
49379;DHT22;35254;47.990;-1.608;2023-03-14T03:54:42;18.80;58.10
49379;DHT22;35254;47.990;-1.608;2023-03-14T03:57:08;18.80;58.20
49379;DHT22;35254;47.990;-1.608;2023-03-14T03:59:34;18.80;57.90
49379;DHT22;35254;47.990;-1.608;2023-03-14T04:02:00;18.80;58.00
49379;DHT22;35254;47.990;-1.608;2023-03-14T04:04:25;18.80;58.10
49379;DHT22;35254;47.990;-1.608;2023-03-14T04:06:51;18.80;58.10
49379;DHT22;35254;47.990;-1.608;2023-03-14T04:09:16;18.80;58.10
49379;DHT22;35254;47.990;-1.608;2023-03-14T04:11:42;18.80;58.00
49379;DHT22;35254;47.990;-1.608;2023-03-14T04:14:08;18.80;58.10
49379;DHT22;35254;47.990;-1.608;2023-03-14T04:16:34;18.80;57.90
49379;DHT22;35254;47.990;-1.608;2023-03-14T04:19:01;18.80;58.00
49379;DHT22;35254;47.990;-1.608;2023-03-14T04:21:26;18.80;58.10
49379;DHT22;35254;47.990;-1.608;2023-03-14T04:23:52;18.80;58.00
49379;DHT22;35254;47.990;-1.608;2023-03-14T04:26:18;18.80;57.80
49379;DHT22;35254;47.990;-1.608;2023-03-14T04:28:43;18.80;57.80
49379;DHT22;35254;47.990;-1.608;2023-03-14T04:31:11;18.80;57.90
49379;DHT22;35254;47.990;-1.608;2023-03-14T04:33:37;18.70;57.70
49379;DHT22;35254;47.990;-1.608;2023-03-14T04:36:04;18.70;57.70
49379;DHT22;35254;47.990;-1.608;2023-03-14T04:38:30;18.80;57.70
49379;DHT22;35254;47.990;-1.608;2023-03-14T04:40:57;18.70;57.70
49379;DHT22;35254;47.990;-1.608;2023-03-14T04:43:22;18.70;57.70
49379;DHT22;35254;47.990;-1.608;2023-03-14T04:45:48;18.70;57.80
49379;DHT22;35254;47.990;-1.608;2023-03-14T04:48:14;18.70;57.60
49379;DHT22;35254;47.990;-1.608;2023-03-14T04:50:39;18.70;57.40
49379;DHT22;35254;47.990;-1.608;2023-03-14T04:53:05;18.70;57.40
49379;DHT22;35254;47.990;-1.608;2023-03-14T04:55:32;18.70;57.30
49379;DHT22;35254;47.990;-1.608;2023-03-14T04:57:58;18.70;57.00
49379;DHT22;35254;47.990;-1.608;2023-03-14T05:00:24;18.70;57.10
49379;DHT22;35254;47.990;-1.608;2023-03-14T05:02:50;18.70;57.10
49379;DHT22;35254;47.990;-1.608;2023-03-14T05:05:16;18.70;56.90
49379;DHT22;35254;47.990;-1.608;2023-03-14T05:07:42;18.70;56.90
49379;DHT22;35254;47.990;-1.608;2023-03-14T05:10:08;18.70;56.80
49379;DHT22;35254;47.990;-1.608;2023-03-14T05:12:35;18.70;56.90
49379;DHT22;35254;47.990;-1.608;2023-03-14T05:15:01;18.70;56.70
49379;DHT22;35254;47.990;-1.608;2023-03-14T05:17:26;18.70;56.70
49379;DHT22;35254;47.990;-1.608;2023-03-14T05:19:52;18.70;56.80
49379;DHT22;35254;47.990;-1.608;2023-03-14T05:22:17;18.70;56.80
49379;DHT22;35254;47.990;-1.608;2023-03-14T05:24:43;18.60;56.70
49379;DHT22;35254;47.990;-1.608;2023-03-14T05:27:09;18.70;56.80
49379;DHT22;35254;47.990;-1.608;2023-03-14T05:29:34;18.60;56.70
49379;DHT22;35254;47.990;-1.608;2023-03-14T05:32:00;18.60;56.60
49379;DHT22;35254;47.990;-1.608;2023-03-14T05:34:26;18.60;56.50
49379;DHT22;35254;47.990;-1.608;2023-03-14T05:36:51;18.60;56.50
49379;DHT22;35254;47.990;-1.608;2023-03-14T05:39:17;18.60;56.60
49379;DHT22;35254;47.990;-1.608;2023-03-14T05:41:43;18.60;56.30
49379;DHT22;35254;47.990;-1.608;2023-03-14T05:44:08;18.60;56.40
49379;DHT22;35254;47.990;-1.608;2023-03-14T05:46:34;18.60;56.40
49379;DHT22;35254;47.990;-1.608;2023-03-14T05:49:00;18.60;56.30
49379;DHT22;35254;47.990;-1.608;2023-03-14T05:51:26;18.60;56.10
49379;DHT22;35254;47.990;-1.608;2023-03-14T05:53:51;18.60;56.10
49379;DHT22;35254;47.990;-1.608;2023-03-14T05:56:17;18.60;55.90
49379;DHT22;35254;47.990;-1.608;2023-03-14T05:58:43;18.50;55.90
49379;DHT22;35254;47.990;-1.608;2023-03-14T06:01:09;18.50;56.00
49379;DHT22;35254;47.990;-1.608;2023-03-14T06:03:34;18.60;55.80
49379;DHT22;35254;47.990;-1.608;2023-03-14T06:06:00;18.50;55.70
49379;DHT22;35254;47.990;-1.608;2023-03-14T06:08:26;18.50;55.70
49379;DHT22;35254;47.990;-1.608;2023-03-14T06:10:53;18.50;55.70
49379;DHT22;35254;47.990;-1.608;2023-03-14T06:13:19;18.60;55.60
49379;DHT22;35254;47.990;-1.608;2023-03-14T06:15:45;18.60;55.60
49379;DHT22;35254;47.990;-1.608;2023-03-14T06:18:10;18.50;55.60
49379;DHT22;35254;47.990;-1.608;2023-03-14T06:20:38;18.50;55.60
49379;DHT22;35254;47.990;-1.608;2023-03-14T06:23:07;18.50;55.60
49379;DHT22;35254;47.990;-1.608;2023-03-14T06:25:34;18.50;55.50
49379;DHT22;35254;47.990;-1.608;2023-03-14T06:28:01;18.50;55.70
49379;DHT22;35254;47.990;-1.608;2023-03-14T06:30:26;18.50;55.80
49379;DHT22;35254;47.990;-1.608;2023-03-14T06:32:52;18.50;55.70
49379;DHT22;35254;47.990;-1.608;2023-03-14T06:35:18;18.50;55.60
49379;DHT22;35254;47.990;-1.608;2023-03-14T06:37:44;18.50;55.70
49379;DHT22;35254;47.990;-1.608;2023-03-14T06:40:11;18.50;55.50
49379;DHT22;35254;47.990;-1.608;2023-03-14T06:42:38;18.50;55.10
49379;DHT22;35254;47.990;-1.608;2023-03-14T06:45:04;18.50;55.40
49379;DHT22;35254;47.990;-1.608;2023-03-14T06:47:29;18.50;55.30
49379;DHT22;35254;47.990;-1.608;2023-03-14T06:49:55;18.50;55.30
49379;DHT22;35254;47.990;-1.608;2023-03-14T06:52:20;18.50;55.30
49379;DHT22;35254;47.990;-1.608;2023-03-14T06:54:46;18.50;55.50
49379;DHT22;35254;47.990;-1.608;2023-03-14T06:57:12;18.50;55.20
49379;DHT22;35254;47.990;-1.608;2023-03-14T06:59:37;18.50;55.60
49379;DHT22;35254;47.990;-1.608;2023-03-14T07:02:03;18.60;55.40
49379;DHT22;35254;47.990;-1.608;2023-03-14T07:04:28;18.60;55.30
49379;DHT22;35254;47.990;-1.608;2023-03-14T07:06:54;18.60;55.40
49379;DHT22;35254;47.990;-1.608;2023-03-14T07:09:20;18.50;55.30
49379;DHT22;35254;47.990;-1.608;2023-03-14T07:11:45;18.50;55.20
49379;DHT22;35254;47.990;-1.608;2023-03-14T07:14:12;18.60;55.20
49379;DHT22;35254;47.990;-1.608;2023-03-14T07:16:37;18.60;55.10
49379;DHT22;35254;47.990;-1.608;2023-03-14T07:19:03;18.60;55.30
49379;DHT22;35254;47.990;-1.608;2023-03-14T07:21:28;18.60;55.70
49379;DHT22;35254;47.990;-1.608;2023-03-14T07:23:54;18.70;55.60
49379;DHT22;35254;47.990;-1.608;2023-03-14T07:26:20;18.70;55.60
49379;DHT22;35254;47.990;-1.608;2023-03-14T07:28:46;18.70;55.00
49379;DHT22;35254;47.990;-1.608;2023-03-14T07:31:12;18.70;54.60
49379;DHT22;35254;47.990;-1.608;2023-03-14T07:33:38;18.70;54.70
49379;DHT22;35254;47.990;-1.608;2023-03-14T07:36:04;18.70;54.50
49379;DHT22;35254;47.990;-1.608;2023-03-14T07:38:29;18.80;54.60
49379;DHT22;35254;47.990;-1.608;2023-03-14T07:40:59;18.90;54.30
49379;DHT22;35254;47.990;-1.608;2023-03-14T07:43:25;19.00;54.40
49379;DHT22;35254;47.990;-1.608;2023-03-14T07:45:51;19.10;54.20
49379;DHT22;35254;47.990;-1.608;2023-03-14T07:48:17;19.20;53.80
49379;DHT22;35254;47.990;-1.608;2023-03-14T07:50:43;19.30;53.50
49379;DHT22;35254;47.990;-1.608;2023-03-14T07:53:08;19.40;53.20
49379;DHT22;35254;47.990;-1.608;2023-03-14T07:55:34;19.50;53.10
49379;DHT22;35254;47.990;-1.608;2023-03-14T07:58:00;19.60;52.80
49379;DHT22;35254;47.990;-1.608;2023-03-14T08:00:25;19.70;52.60
49379;DHT22;35254;47.990;-1.608;2023-03-14T08:02:51;19.80;52.30
49379;DHT22;35254;47.990;-1.608;2023-03-14T08:05:17;19.90;52.00
49379;DHT22;35254;47.990;-1.608;2023-03-14T08:07:43;19.90;51.80
49379;DHT22;35254;47.990;-1.608;2023-03-14T08:10:09;20.00;51.60
49379;DHT22;35254;47.990;-1.608;2023-03-14T08:12:34;20.10;51.40
49379;DHT22;35254;47.990;-1.608;2023-03-14T08:15:00;20.10;51.10
49379;DHT22;35254;47.990;-1.608;2023-03-14T08:17:26;20.20;50.70
49379;DHT22;35254;47.990;-1.608;2023-03-14T08:19:52;20.20;50.80
49379;DHT22;35254;47.990;-1.608;2023-03-14T08:22:17;20.30;50.70
49379;DHT22;35254;47.990;-1.608;2023-03-14T08:24:43;20.40;50.50
49379;DHT22;35254;47.990;-1.608;2023-03-14T08:27:08;20.40;50.30
49379;DHT22;35254;47.990;-1.608;2023-03-14T08:29:34;20.50;50.40
49379;DHT22;35254;47.990;-1.608;2023-03-14T08:32:00;20.50;50.30
49379;DHT22;35254;47.990;-1.608;2023-03-14T08:34:25;20.60;50.30
49379;DHT22;35254;47.990;-1.608;2023-03-14T08:36:51;20.60;50.30
49379;DHT22;35254;47.990;-1.608;2023-03-14T08:39:16;20.70;50.00
49379;DHT22;35254;47.990;-1.608;2023-03-14T08:41:42;20.70;50.20
49379;DHT22;35254;47.990;-1.608;2023-03-14T08:44:10;20.70;50.10
49379;DHT22;35254;47.990;-1.608;2023-03-14T08:46:37;20.70;50.30
49379;DHT22;35254;47.990;-1.608;2023-03-14T08:49:03;20.50;50.50
49379;DHT22;35254;47.990;-1.608;2023-03-14T08:51:29;20.50;50.80
49379;DHT22;35254;47.990;-1.608;2023-03-14T08:53:55;20.40;50.80
49379;DHT22;35254;47.990;-1.608;2023-03-14T08:56:20;20.40;50.90
49379;DHT22;35254;47.990;-1.608;2023-03-14T08:58:46;20.50;50.90
49379;DHT22;35254;47.990;-1.608;2023-03-14T09:01:12;20.40;50.90
49379;DHT22;35254;47.990;-1.608;2023-03-14T09:03:38;20.30;51.10
49379;DHT22;35254;47.990;-1.608;2023-03-14T09:06:08;20.40;51.10
49379;DHT22;35254;47.990;-1.608;2023-03-14T09:08:34;20.40;50.90
49379;DHT22;35254;47.990;-1.608;2023-03-14T09:11:00;20.60;50.80
49379;DHT22;35254;47.990;-1.608;2023-03-14T09:13:26;20.60;50.70
49379;DHT22;35254;47.990;-1.608;2023-03-14T09:15:55;20.70;50.60
49379;DHT22;35254;47.990;-1.608;2023-03-14T09:18:22;20.70;50.50
49379;DHT22;35254;47.990;-1.608;2023-03-14T09:20:48;20.70;50.70
49379;DHT22;35254;47.990;-1.608;2023-03-14T09:23:14;20.70;50.60
49379;DHT22;35254;47.990;-1.608;2023-03-14T09:25:40;20.70;50.50
49379;DHT22;35254;47.990;-1.608;2023-03-14T09:28:05;20.70;50.50
49379;DHT22;35254;47.990;-1.608;2023-03-14T09:30:31;20.70;50.40
49379;DHT22;35254;47.990;-1.608;2023-03-14T09:32:58;20.70;50.60
49379;DHT22;35254;47.990;-1.608;2023-03-14T09:35:24;20.80;50.60
49379;DHT22;35254;47.990;-1.608;2023-03-14T09:37:50;20.70;50.40
49379;DHT22;35254;47.990;-1.608;2023-03-14T09:40:17;20.70;50.50
49379;DHT22;35254;47.990;-1.608;2023-03-14T09:42:43;20.70;50.50
49379;DHT22;35254;47.990;-1.608;2023-03-14T09:45:18;20.70;50.40
49379;DHT22;35254;47.990;-1.608;2023-03-14T09:47:48;20.70;50.30
49379;DHT22;35254;47.990;-1.608;2023-03-14T09:50:15;20.70;50.90
49379;DHT22;35254;47.990;-1.608;2023-03-14T09:52:44;20.70;50.70
49379;DHT22;35254;47.990;-1.608;2023-03-14T09:55:12;20.60;50.80
49379;DHT22;35254;47.990;-1.608;2023-03-14T09:57:39;20.70;51.00
49379;DHT22;35254;47.990;-1.608;2023-03-14T10:00:20;20.60;51.00
49379;DHT22;35254;47.990;-1.608;2023-03-14T10:02:53;20.60;51.00
49379;DHT22;35254;47.990;-1.608;2023-03-14T10:05:21;20.60;50.90
49379;DHT22;35254;47.990;-1.608;2023-03-14T10:07:47;20.50;51.00
49379;DHT22;35254;47.990;-1.608;2023-03-14T10:10:20;20.50;51.00
49379;DHT22;35254;47.990;-1.608;2023-03-14T10:15:34;20.50;51.30
49379;DHT22;35254;47.990;-1.608;2023-03-14T10:18:01;20.50;51.20
49379;DHT22;35254;47.990;-1.608;2023-03-14T10:20:35;20.40;51.20
49379;DHT22;35254;47.990;-1.608;2023-03-14T10:25:43;20.30;51.40
49379;DHT22;35254;47.990;-1.608;2023-03-14T10:28:25;20.30;51.40
49379;DHT22;35254;47.990;-1.608;2023-03-14T10:30:51;20.30;51.50
49379;DHT22;35254;47.990;-1.608;2023-03-14T10:33:22;20.20;51.70
49379;DHT22;35254;47.990;-1.608;2023-03-14T10:38:25;20.30;51.70
49379;DHT22;35254;47.990;-1.608;2023-03-14T10:40:52;20.30;51.60
49379;DHT22;35254;47.990;-1.608;2023-03-14T10:43:22;20.30;51.70
49379;DHT22;35254;47.990;-1.608;2023-03-14T10:45:55;20.30;51.60
49379;DHT22;35254;47.990;-1.608;2023-03-14T10:48:32;20.30;51.60
49379;DHT22;35254;47.990;-1.608;2023-03-14T10:53:24;20.40;51.60
49379;DHT22;35254;47.990;-1.608;2023-03-14T10:55:50;20.40;51.60
49379;DHT22;35254;47.990;-1.608;2023-03-14T10:58:24;20.40;51.60
49379;DHT22;35254;47.990;-1.608;2023-03-14T11:03:49;20.40;51.40
49379;DHT22;35254;47.990;-1.608;2023-03-14T11:06:22;20.40;51.40
49379;DHT22;35254;47.990;-1.608;2023-03-14T11:09:10;20.40;51.30
49379;DHT22;35254;47.990;-1.608;2023-03-14T11:11:39;20.50;51.20
49379;DHT22;35254;47.990;-1.608;2023-03-14T11:14:21;20.50;51.20
49379;DHT22;35254;47.990;-1.608;2023-03-14T11:22:41;20.60;51.00
49379;DHT22;35254;47.990;-1.608;2023-03-14T11:35:30;20.50;51.00
49379;DHT22;35254;47.990;-1.608;2023-03-14T11:40:33;20.30;50.60
49379;DHT22;35254;47.990;-1.608;2023-03-14T11:45:38;20.30;50.10
49379;DHT22;35254;47.990;-1.608;2023-03-14T11:50:48;20.30;49.90
49379;DHT22;35254;47.990;-1.608;2023-03-14T11:55:49;20.30;49.00
49379;DHT22;35254;47.990;-1.608;2023-03-14T11:58:26;20.30;49.40
49379;DHT22;35254;47.990;-1.608;2023-03-14T12:00:54;20.40;49.60
49379;DHT22;35254;47.990;-1.608;2023-03-14T12:03:39;20.50;50.00
49379;DHT22;35254;47.990;-1.608;2023-03-14T12:11:54;20.60;50.30
49379;DHT22;35254;47.990;-1.608;2023-03-14T12:14:27;20.60;50.40
49379;DHT22;35254;47.990;-1.608;2023-03-14T12:16:58;20.60;49.90
49379;DHT22;35254;47.990;-1.608;2023-03-14T12:19:31;20.60;50.40
49379;DHT22;35254;47.990;-1.608;2023-03-14T12:25:46;20.50;50.80
49379;DHT22;35254;47.990;-1.608;2023-03-14T12:30:36;20.50;51.00
49379;DHT22;35254;47.990;-1.608;2023-03-14T12:33:28;20.60;51.00
49379;DHT22;35254;47.990;-1.608;2023-03-14T12:36:03;20.60;51.00
49379;DHT22;35254;47.990;-1.608;2023-03-14T12:43:49;20.50;51.00
49379;DHT22;35254;47.990;-1.608;2023-03-14T12:46:19;20.50;51.00
49379;DHT22;35254;47.990;-1.608;2023-03-14T12:48:49;20.60;51.00
49379;DHT22;35254;47.990;-1.608;2023-03-14T12:51:19;20.60;51.10
49379;DHT22;35254;47.990;-1.608;2023-03-14T12:56:27;20.50;51.00
49379;DHT22;35254;47.990;-1.608;2023-03-14T12:59:28;20.60;51.00
49379;DHT22;35254;47.990;-1.608;2023-03-14T13:06:59;20.60;51.50
49379;DHT22;35254;47.990;-1.608;2023-03-14T13:11:55;20.50;51.50
49379;DHT22;35254;47.990;-1.608;2023-03-14T13:14:23;20.60;51.30
49379;DHT22;35254;47.990;-1.608;2023-03-14T13:16:49;20.60;51.20
49379;DHT22;35254;47.990;-1.608;2023-03-14T13:19:26;20.60;51.10
49379;DHT22;35254;47.990;-1.608;2023-03-14T13:21:59;20.60;51.20
49379;DHT22;35254;47.990;-1.608;2023-03-14T13:24:27;20.60;51.50
49379;DHT22;35254;47.990;-1.608;2023-03-14T13:26:58;20.60;51.50
49379;DHT22;35254;47.990;-1.608;2023-03-14T13:29:31;20.60;51.10
49379;DHT22;35254;47.990;-1.608;2023-03-14T13:32:00;20.60;51.20
49379;DHT22;35254;47.990;-1.608;2023-03-14T13:34:33;20.70;51.30
49379;DHT22;35254;47.990;-1.608;2023-03-14T13:37:00;20.60;51.30
49379;DHT22;35254;47.990;-1.608;2023-03-14T13:39:27;20.70;51.50
49379;DHT22;35254;47.990;-1.608;2023-03-14T13:41:58;20.70;51.50
49379;DHT22;35254;47.990;-1.608;2023-03-14T13:44:32;20.70;51.80
49379;DHT22;35254;47.990;-1.608;2023-03-14T13:47:00;20.70;51.70
49379;DHT22;35254;47.990;-1.608;2023-03-14T13:49:27;20.70;51.70
49379;DHT22;35254;47.990;-1.608;2023-03-14T13:51:54;20.70;51.90
49379;DHT22;35254;47.990;-1.608;2023-03-14T13:54:22;20.70;51.80
49379;DHT22;35254;47.990;-1.608;2023-03-14T13:56:48;20.70;51.90
49379;DHT22;35254;47.990;-1.608;2023-03-14T13:59:25;20.70;51.70
49379;DHT22;35254;47.990;-1.608;2023-03-14T14:01:52;20.70;51.80
49379;DHT22;35254;47.990;-1.608;2023-03-14T14:04:21;20.70;51.90
49379;DHT22;35254;47.990;-1.608;2023-03-14T14:09:27;20.60;51.40
49379;DHT22;35254;47.990;-1.608;2023-03-14T14:12:13;20.70;51.40
49379;DHT22;35254;47.990;-1.608;2023-03-14T14:17:19;20.70;51.50
49379;DHT22;35254;47.990;-1.608;2023-03-14T14:19:47;20.70;51.40
49379;DHT22;35254;47.990;-1.608;2023-03-14T14:22:13;20.60;51.40
49379;DHT22;35254;47.990;-1.608;2023-03-14T14:24:39;20.70;51.50
49379;DHT22;35254;47.990;-1.608;2023-03-14T14:27:14;20.60;51.50
49379;DHT22;35254;47.990;-1.608;2023-03-14T14:29:41;20.60;51.50
49379;DHT22;35254;47.990;-1.608;2023-03-14T14:35:00;20.60;51.60
49379;DHT22;35254;47.990;-1.608;2023-03-14T14:37:32;20.60;51.60
49379;DHT22;35254;47.990;-1.608;2023-03-14T14:40:10;20.60;51.50
49379;DHT22;35254;47.990;-1.608;2023-03-14T14:42:41;20.60;51.40
49379;DHT22;35254;47.990;-1.608;2023-03-14T14:45:12;20.60;51.00
49379;DHT22;35254;47.990;-1.608;2023-03-14T14:47:52;20.70;51.00
49379;DHT22;35254;47.990;-1.608;2023-03-14T14:50:30;20.70;50.90
49379;DHT22;35254;47.990;-1.608;2023-03-14T14:52:58;20.70;50.90
49379;DHT22;35254;47.990;-1.608;2023-03-14T14:55:38;20.70;50.80
49379;DHT22;35254;47.990;-1.608;2023-03-14T14:58:11;20.70;50.70
49379;DHT22;35254;47.990;-1.608;2023-03-14T15:00:39;20.70;50.80
49379;DHT22;35254;47.990;-1.608;2023-03-14T15:03:12;20.70;50.50
49379;DHT22;35254;47.990;-1.608;2023-03-14T15:05:40;20.70;50.50
49379;DHT22;35254;47.990;-1.608;2023-03-14T15:08:10;20.70;50.20
49379;DHT22;35254;47.990;-1.608;2023-03-14T15:10:36;20.70;50.50
49379;DHT22;35254;47.990;-1.608;2023-03-14T15:13:02;20.70;50.60
49379;DHT22;35254;47.990;-1.608;2023-03-14T15:15:27;20.60;50.50
49379;DHT22;35254;47.990;-1.608;2023-03-14T15:17:53;20.70;50.60
49379;DHT22;35254;47.990;-1.608;2023-03-14T15:20:19;20.60;50.60
49379;DHT22;35254;47.990;-1.608;2023-03-14T15:22:46;20.60;50.60
49379;DHT22;35254;47.990;-1.608;2023-03-14T15:25:13;20.60;50.60
49379;DHT22;35254;47.990;-1.608;2023-03-14T15:27:39;20.70;50.70
49379;DHT22;35254;47.990;-1.608;2023-03-14T15:30:15;20.70;50.60
49379;DHT22;35254;47.990;-1.608;2023-03-14T15:32:41;20.70;50.60
49379;DHT22;35254;47.990;-1.608;2023-03-14T15:35:07;20.60;50.80
49379;DHT22;35254;47.990;-1.608;2023-03-14T15:37:33;20.60;50.70
49379;DHT22;35254;47.990;-1.608;2023-03-14T15:39:59;20.60;50.40
49379;DHT22;35254;47.990;-1.608;2023-03-14T15:42:24;20.60;50.40
49379;DHT22;35254;47.990;-1.608;2023-03-14T15:44:50;20.60;50.40
49379;DHT22;35254;47.990;-1.608;2023-03-14T15:47:16;20.70;50.10
49379;DHT22;35254;47.990;-1.608;2023-03-14T15:49:42;20.70;50.20
49379;DHT22;35254;47.990;-1.608;2023-03-14T15:52:08;20.70;49.80
49379;DHT22;35254;47.990;-1.608;2023-03-14T15:54:34;20.60;50.00
49379;DHT22;35254;47.990;-1.608;2023-03-14T15:57:00;20.70;50.20
49379;DHT22;35254;47.990;-1.608;2023-03-14T15:59:25;20.70;50.10
49379;DHT22;35254;47.990;-1.608;2023-03-14T16:01:51;20.70;50.10
49379;DHT22;35254;47.990;-1.608;2023-03-14T16:04:17;20.70;50.20
49379;DHT22;35254;47.990;-1.608;2023-03-14T16:06:44;20.70;49.90
49379;DHT22;35254;47.990;-1.608;2023-03-14T16:09:13;20.60;50.10
49379;DHT22;35254;47.990;-1.608;2023-03-14T16:11:38;20.70;50.00
49379;DHT22;35254;47.990;-1.608;2023-03-14T16:14:05;20.70;50.10
49379;DHT22;35254;47.990;-1.608;2023-03-14T16:16:30;20.70;50.00
49379;DHT22;35254;47.990;-1.608;2023-03-14T16:18:56;20.70;49.90
49379;DHT22;35254;47.990;-1.608;2023-03-14T16:21:22;20.70;50.10
49379;DHT22;35254;47.990;-1.608;2023-03-14T16:23:47;20.60;50.20
49379;DHT22;35254;47.990;-1.608;2023-03-14T16:26:15;20.70;50.00
49379;DHT22;35254;47.990;-1.608;2023-03-14T16:28:42;20.60;50.00
49379;DHT22;35254;47.990;-1.608;2023-03-14T16:31:10;20.70;49.90
49379;DHT22;35254;47.990;-1.608;2023-03-14T16:33:37;20.70;50.10
49379;DHT22;35254;47.990;-1.608;2023-03-14T16:36:05;20.70;50.10
49379;DHT22;35254;47.990;-1.608;2023-03-14T16:38:34;20.70;50.10